KMKL/MKL METAR and TAF weather

Enter ICAO airport designator
Station Type Date Time Source
KMKL METAR 2019/06/27 09:53 UTC NOAA

KMKL 270953Z AUTO 36007KT 10SM SCT039 BKN048 21/20 A3019 RMK AO2 LTG DSNT N AND NW SLP219 T02060200


Station Type Date Time Source
KMKL Decoded METAR 2019/06/27 09:53 UTC NOAA

JACKSON MCKELLAR-SIPES RGNL, TN, United States (KMKL) 35-36N 088-55W 128M
Jun 27, 2019 - 05:53 AM EDT / 2019.06.27 0953 UTC
Wind: from the N (360 degrees) at 8 MPH (7 KT):0
Visibility: 10 mile(s):0
Sky conditions: mostly cloudy
Weather: Lightning observed
Temperature: 69.1 F (20.6 C)
Dew Point: 68.0 F (20.0 C)
Relative Humidity: 96%
Pressure (altimeter): 30.19 in. Hg (1022 hPa)
ob: KMKL 270953Z AUTO 36007KT 10SM SCT039 BKN048 21/20 A3019 RMK AO2 LTG DSNT N AND NW SLP219 T02060200
cycle: 10

Station Type Date Time Source
KMKL TAF 2019/06/27 06:22 UTC NOAA

TAF KMKL 270520Z 2706/2806 26004KT P6SM SCT050 BKN150
FM270800 26004KT P6SM VCSH BKN050 BKN150
FM271400 24004KT P6SM SCT035 BKN150
FM271800 25005KT P6SM VCTS SCT045CB BKN060
FM280000 VRB03KT P6SM SCT050 BKN200

Example: see airport list